Swansboro, NC (28584)

9:04 AM EST on December 20, 2014 (GMT -0500)
Marsh Harbor | Change Station
CLOSE
Current Station
Personal Weather Station
Location: Cedar Point, NC
Elevation: 12 ft
Nearby Weather Stations

Elev 12 ft 34.69 °N, 77.08 °W | Updated 13 seconds ago

Overcast
Overcast
40.8 °F
Feels Like 41 °F
N
2.0
Wind Variable Wind from ESE
Gusts 3.0 mph

Today
High -- | Low -- °F
--% Chance of Precip.
Yesterday
High -- | Low -- °F
Precip. -- in
7:11 AM 5:00 PM
Waning Crescent, 3% visible
Pressure 30.28 in
Visibility 9.0 miles
Clouds Mostly Cloudy 7500 ft
Overcast 9000 ft
Windchill 41 °F
Dew Point 37 °F
Humidity 86%
Rainfall 0.00 in
Snow Depth Not available.
UV 0 out of 12
Pollen .60 out of 12
Air Quality Not available.
Flu Activity Not available.
METAR KNJM 201357Z AUTO 03006KT 9SM -RA BKN075 OVC090 06/03 A3027 RMK AO2 RAE18B34 SLP254 P0000 T00560033 $

More Conditions Fewer Conditions

Pressure 30.28 in
Visibility 9.0 miles
Clouds Mostly Cloudy 7500 ft
Overcast 9000 ft
Windchill 41 °F
Dew Point 37 °F
Humidity 86%
Rainfall 0.00 in
Snow Depth Not available.
UV 0 out of 12
Pollen .60 out of 12
Air Quality Not available.
Flu Activity Not available.
METAR KNJM 201357Z AUTO 03006KT 9SM -RA BKN075 OVC090 06/03 A3027 RMK AO2 RAE18B34 SLP254 P0000 T00560033 $

More Conditions Fewer Conditions

10-Day Weather Forecast

Almanac

Astronomy

Dec. 20, 2014 Rise Set
Actual Time
Civil Twilight
Nautical Twilight
Astronomical Twilight
Moon
Length of Visible Light
Length of Day
Tomorrow will be .
, % of the Moon is Illuminated

Today's Extremes

State Highs State Lows

Community

WunderPhotos

Upload Photos

1,779,174 photos uploaded!

WunderBlogs® & News

Nearby

Air Quality

  Air Quality AQ Index Pollutant
Not available.

Snow Depth

Station Depth Elevation

Earthquake Activity

City Distance Mag. Time & Date
Minimum magnitude displayed is 2.5.

Coastal Water Temperatures

Place Temperature

Nearby Weather Stations